createdAt,value
2019-04-16T00:01:08.241Z,19.60
2019-04-16T00:03:39.803Z,24.77
2019-04-16T00:06:14.091Z,26.10
2019-04-16T00:08:51.444Z,25.52
2019-04-16T00:11:26.137Z,20.50
2019-04-16T00:14:03.043Z,24.67
2019-04-16T00:16:32.168Z,20.43
2019-04-16T00:19:05.590Z,34.40
2019-04-16T00:21:35.336Z,19.82
2019-04-16T00:24:13.081Z,24.90
2019-04-16T00:26:42.965Z,15.60
2019-04-16T00:29:12.960Z,21.35
2019-04-16T00:31:44.722Z,19.60
2019-04-16T00:34:14.645Z,19.40
2019-04-16T00:36:48.469Z,20.45
2019-04-16T00:39:16.068Z,20.40
2019-04-16T00:41:45.956Z,18.23
2019-04-16T00:44:16.946Z,18.23
2019-04-16T00:46:46.999Z,15.80
2019-04-16T00:49:16.889Z,17.98
2019-04-16T00:51:48.002Z,16.95
2019-04-16T00:54:17.920Z,19.92
2019-04-16T00:56:47.886Z,17.90
2019-04-16T00:59:17.838Z,15.95
2019-04-16T01:01:47.782Z,17.82
2019-04-16T01:04:18.708Z,20.30
2019-04-16T01:06:48.659Z,19.40
2019-04-16T01:09:18.649Z,24.55
2019-04-16T01:11:49.042Z,16.48
2019-04-16T01:14:19.623Z,22.57
2019-04-16T01:16:49.637Z,19.52
2019-04-16T01:19:19.555Z,22.30
2019-04-16T01:21:49.505Z,23.32
2019-04-16T01:24:20.227Z,16.30
2019-04-16T01:26:52.196Z,19.55
2019-04-16T01:29:22.144Z,23.77
2019-04-16T01:31:59.796Z,19.15
2019-04-16T01:34:48.328Z,18.12
2019-04-16T01:37:25.540Z,15.70
2019-04-16T01:40:01.286Z,16.35
2019-04-16T01:42:32.044Z,16.45
2019-04-16T01:45:03.220Z,22.85
2019-04-16T01:47:35.790Z,22.62
2019-04-16T01:50:06.295Z,24.77
2019-04-16T01:52:36.213Z,24.02
2019-04-16T01:55:06.463Z,21.15
2019-04-16T01:57:37.426Z,23.67
2019-04-16T02:00:08.786Z,18.17
2019-04-16T02:02:39.705Z,28.25
2019-04-16T02:05:09.821Z,20.02
2019-04-16T02:07:39.877Z,14.15
2019-04-16T02:10:09.971Z,18.42
2019-04-16T02:12:43.672Z,18.23
2019-04-16T02:15:11.675Z,19.52
2019-04-16T02:17:41.610Z,12.85
2019-04-16T02:20:11.872Z,17.87
2019-04-16T02:22:42.277Z,17.62
2019-04-16T02:25:13.376Z,14.28
2019-04-16T02:27:43.224Z,18.62
2019-04-16T02:30:13.179Z,21.57
2019-04-16T02:32:43.252Z,19.00
2019-04-16T02:35:13.439Z,17.80
2019-04-16T02:37:43.441Z,24.37
2019-04-16T02:40:18.352Z,18.37
2019-04-16T02:42:45.246Z,21.07
2019-04-16T02:45:15.249Z,26.85
2019-04-16T02:47:45.120Z,16.07
2019-04-16T02:50:16.780Z,15.53
2019-04-16T02:52:57.769Z,19.12
2019-04-16T02:55:31.994Z,22.15
2019-04-16T02:58:03.608Z,14.50
2019-04-16T03:00:41.631Z,18.20
2019-04-16T03:03:19.424Z,17.87
2019-04-16T03:05:51.144Z,18.20
2019-04-16T03:08:21.068Z,15.98
2019-04-16T03:10:51.082Z,17.12
2019-04-16T03:13:23.376Z,19.87
2019-04-16T03:16:09.362Z,15.85
2019-04-16T03:18:46.982Z,17.80
2019-04-16T03:21:15.444Z,21.25
2019-04-16T03:23:45.366Z,16.67
2019-04-16T03:26:17.534Z,18.05
2019-04-16T03:28:46.785Z,11.53
2019-04-16T03:31:22.129Z,21.10
2019-04-16T03:33:50.811Z,17.52
2019-04-16T03:36:20.030Z,14.95
2019-04-16T03:38:49.947Z,14.13
2019-04-16T03:41:19.820Z,14.18
2019-04-16T03:43:49.820Z,12.23
2019-04-16T03:46:19.699Z,15.38
2019-04-16T03:48:52.660Z,14.93
2019-04-16T03:51:21.261Z,14.05
2019-04-16T03:53:51.201Z,15.05
2019-04-16T03:56:21.144Z,13.72
2019-04-16T03:58:51.972Z,13.40
2019-04-16T04:01:21.915Z,21.05
2019-04-16T04:03:57.063Z,14.00
2019-04-16T04:06:23.400Z,15.43
2019-04-16T04:08:54.330Z,13.67
2019-04-16T04:11:24.277Z,17.15
2019-04-16T04:13:54.268Z,18.48
2019-04-16T04:16:24.132Z,12.37
2019-04-16T04:18:53.981Z,14.63
2019-04-16T04:21:23.856Z,18.75
2019-04-16T04:23:53.705Z,15.63
2019-04-16T04:26:23.575Z,14.68
2019-04-16T04:28:53.420Z,11.03
2019-04-16T04:31:23.369Z,19.02
2019-04-16T04:33:53.296Z,14.10
2019-04-16T04:36:27.189Z,11.90
2019-04-16T04:38:54.719Z,16.15
2019-04-16T04:41:24.605Z,14.40
2019-04-16T04:43:54.580Z,19.92
2019-04-16T04:46:24.454Z,21.73
2019-04-16T04:48:55.761Z,14.68
2019-04-16T04:51:25.863Z,14.83
2019-04-16T04:53:55.805Z,19.25
2019-04-16T04:56:27.966Z,17.12
2019-04-16T04:58:57.297Z,17.52
2019-04-16T05:01:27.253Z,17.92
2019-04-16T05:04:19.471Z,18.32
2019-04-16T05:06:46.931Z,18.23
2019-04-16T05:09:16.852Z,15.50
2019-04-16T05:11:48.371Z,17.10
2019-04-16T05:14:18.265Z,16.77
2019-04-16T05:16:48.180Z,15.98
2019-04-16T05:19:18.058Z,24.45
2019-04-16T05:21:50.062Z,13.45
2019-04-16T05:24:19.554Z,19.80
2019-04-16T05:26:49.827Z,16.80
2019-04-16T05:29:19.706Z,12.37
2019-04-16T05:31:49.641Z,17.55
2019-04-16T05:34:19.583Z,19.23
2019-04-16T05:36:49.580Z,20.80
2019-04-16T05:39:19.448Z,18.52
2019-04-16T05:41:50.527Z,18.85
2019-04-16T05:44:20.872Z,13.15
2019-04-16T05:46:50.787Z,16.50
2019-04-16T05:49:24.663Z,15.30
2019-04-16T05:51:52.218Z,18.23
2019-04-16T05:54:23.917Z,19.50
2019-04-16T05:59:27.463Z,15.63
2019-04-16T06:01:59.060Z,14.87
2019-04-16T06:04:29.133Z,11.30
2019-04-16T06:07:02.862Z,15.90
2019-04-16T06:09:30.556Z,16.77
2019-04-16T06:12:00.413Z,12.88
2019-04-16T06:14:32.011Z,14.45
2019-04-16T06:17:19.780Z,15.65
2019-04-16T06:19:54.137Z,18.02
2019-04-16T06:22:29.595Z,12.63
2019-04-16T06:25:08.549Z,11.28
2019-04-16T06:27:35.949Z,13.03
2019-04-16T06:30:24.365Z,12.75
2019-04-16T06:33:04.947Z,12.00
2019-04-16T06:35:48.240Z,13.13
2019-04-16T06:38:22.751Z,12.82
2019-04-16T06:41:06.450Z,8.55
2019-04-16T06:43:58.298Z,14.43
2019-04-16T06:46:26.203Z,12.63
2019-04-16T06:49:17.073Z,14.03
2019-04-16T06:52:03.840Z,17.70
2019-04-16T06:54:45.647Z,14.30
2019-04-16T06:57:22.955Z,16.00
2019-04-16T07:00:02.452Z,15.38
2019-04-16T07:03:02.155Z,14.70
2019-04-16T07:05:32.964Z,9.80
2019-04-16T07:08:02.720Z,12.37
2019-04-16T07:10:44.507Z,12.05
2019-04-16T07:13:09.940Z,10.50
2019-04-16T07:15:37.845Z,10.45
2019-04-16T07:18:07.793Z,13.90
2019-04-16T07:20:37.764Z,10.68
2019-04-16T07:23:07.641Z,11.65
2019-04-16T07:25:42.078Z,13.30
2019-04-16T07:28:10.792Z,16.95
2019-04-16T07:31:05.490Z,21.07
2019-04-16T07:33:37.029Z,18.32
2019-04-16T07:36:08.608Z,18.02
2019-04-16T07:38:40.124Z,17.23
2019-04-16T07:41:26.447Z,13.75
2019-04-16T07:44:08.152Z,14.80
2019-04-16T07:46:37.037Z,12.98
2019-04-16T07:49:26.411Z,17.70
2019-04-16T07:52:16.100Z,16.05
2019-04-16T07:55:02.741Z,21.73
2019-04-16T07:57:32.667Z,13.83
2019-04-16T08:00:02.568Z,13.85
2019-04-16T08:02:33.902Z,9.73
2019-04-16T08:05:08.655Z,13.53
2019-04-16T08:07:36.866Z,12.85
2019-04-16T08:10:07.422Z,15.23
2019-04-16T08:12:41.876Z,15.05
2019-04-16T08:15:14.276Z,13.43
2019-04-16T08:17:42.388Z,21.20
2019-04-16T08:20:12.669Z,13.38
2019-04-16T08:22:47.202Z,14.05
2019-04-16T08:25:14.753Z,13.80
2019-04-16T08:27:47.103Z,9.85
2019-04-16T08:30:16.676Z,15.20
2019-04-16T08:32:48.934Z,14.45
2019-04-16T08:35:18.196Z,31.15
2019-04-16T08:37:49.538Z,18.87
2019-04-16T08:40:19.765Z,25.97
2019-04-16T08:42:49.676Z,15.60
2019-04-16T08:45:20.707Z,23.10
2019-04-16T08:47:51.979Z,17.98
2019-04-16T08:50:25.840Z,24.45
2019-04-16T08:52:53.473Z,14.68
2019-04-16T08:55:24.294Z,23.22
2019-04-16T08:57:54.269Z,20.62
2019-04-16T09:00:24.522Z,16.10
2019-04-16T09:02:57.610Z,16.50
2019-04-16T09:05:26.262Z,15.60
2019-04-16T09:08:10.942Z,23.90
2019-04-16T09:10:30.907Z,15.28
2019-04-16T09:13:04.783Z,12.23
2019-04-16T09:15:35.869Z,16.23
2019-04-16T09:18:13.378Z,16.10
2019-04-16T09:20:44.112Z,13.30
2019-04-16T09:23:14.225Z,13.75
2019-04-16T09:25:46.707Z,11.68
2019-04-16T09:28:25.844Z,14.90
2019-04-16T09:31:08.311Z,12.90
2019-04-16T09:33:40.013Z,11.55
2019-04-16T09:36:11.577Z,10.70
2019-04-16T09:38:47.436Z,11.03
2019-04-16T09:41:19.075Z,8.73
2019-04-16T09:43:53.641Z,9.63
2019-04-16T09:46:48.057Z,11.95
2019-04-16T09:48:53.885Z,8.68
2019-04-16T09:51:25.878Z,9.70
2019-04-16T09:53:55.373Z,10.65
2019-04-16T09:56:28.973Z,7.83
2019-04-16T09:59:02.171Z,11.57
2019-04-16T10:01:42.960Z,13.25
2019-04-16T10:04:14.476Z,10.68
2019-04-16T10:06:44.338Z,10.58
2019-04-16T10:09:20.091Z,9.50
2019-04-16T10:11:45.965Z,7.87
2019-04-16T10:14:15.919Z,13.30
2019-04-16T10:16:45.914Z,8.45
2019-04-16T10:19:17.027Z,9.63
2019-04-16T10:21:47.047Z,7.83
2019-04-16T10:24:18.823Z,7.97
2019-04-16T10:26:50.440Z,7.95
2019-04-16T10:29:22.221Z,8.50
2019-04-16T10:31:53.532Z,7.90
2019-04-16T10:34:23.506Z,7.00
2019-04-16T10:36:53.554Z,7.37
2019-04-16T10:39:25.242Z,9.38
2019-04-16T10:41:56.828Z,10.98
2019-04-16T10:44:34.471Z,8.10
2019-04-16T10:47:22.746Z,8.95
2019-04-16T10:49:54.324Z,7.80
2019-04-16T10:52:44.276Z,7.25
2019-04-16T10:55:18.874Z,8.68
2019-04-16T10:58:08.216Z,9.33
2019-04-16T11:00:56.119Z,10.13
2019-04-16T11:03:36.543Z,7.35
2019-04-16T11:06:11.335Z,8.43
2019-04-16T11:08:41.315Z,9.15
2019-04-16T11:11:11.271Z,7.05
2019-04-16T11:13:42.968Z,7.42
2019-04-16T11:16:14.755Z,7.60
2019-04-16T11:18:45.905Z,9.98
2019-04-16T11:21:16.153Z,6.42
2019-04-16T11:23:46.005Z,7.33
2019-04-16T11:26:15.960Z,10.28
2019-04-16T11:28:45.962Z,7.05
2019-04-16T11:31:17.566Z,8.30
2019-04-16T11:33:47.493Z,6.53
2019-04-16T11:36:20.733Z,7.08
2019-04-16T11:38:49.041Z,7.62
2019-04-16T11:41:19.038Z,7.20
2019-04-16T11:43:48.972Z,7.35
2019-04-16T11:46:19.073Z,7.10
2019-04-16T11:48:50.283Z,8.85
2019-04-16T11:51:20.561Z,6.40
2019-04-16T11:53:50.543Z,7.12
2019-04-16T11:56:22.515Z,7.22
2019-04-16T11:58:51.992Z,6.85
2019-04-16T12:01:23.595Z,7.25
2019-04-16T12:03:57.660Z,7.20
2019-04-16T12:06:45.083Z,6.70
2019-04-16T12:09:33.531Z,5.83
2019-04-16T12:12:05.216Z,6.92
2019-04-16T12:14:48.853Z,6.58
2019-04-16T12:17:32.431Z,6.40
2019-04-16T12:20:10.523Z,6.40
2019-04-16T12:22:45.054Z,6.03
2019-04-16T12:25:23.070Z,6.50
2019-04-16T12:28:12.605Z,6.35
2019-04-16T12:30:43.204Z,6.17
2019-04-16T12:33:17.940Z,6.65
2019-04-16T12:35:58.365Z,6.10
2019-04-16T12:38:29.880Z,7.15
2019-04-16T12:41:01.432Z,5.58
2019-04-16T12:43:51.106Z,5.95
2019-04-16T12:46:25.442Z,6.65
2019-04-16T12:48:59.928Z,5.53
2019-04-16T12:51:46.679Z,5.53
2019-04-16T12:54:30.382Z,6.25
2019-04-16T12:57:15.002Z,6.08
2019-04-16T13:00:00.680Z,5.80
2019-04-16T13:02:35.576Z,6.47
2019-04-16T13:05:20.849Z,5.67
2019-04-16T13:07:54.182Z,5.65
2019-04-16T13:10:28.625Z,5.53
2019-04-16T13:13:16.330Z,5.97
2019-04-16T13:15:47.842Z,5.92
2019-04-16T13:18:19.400Z,5.47
2019-04-16T13:20:50.905Z,7.15
2019-04-16T13:23:34.419Z,5.58
2019-04-16T13:26:06.275Z,6.00
2019-04-16T13:31:05.176Z,5.53
2019-04-16T13:33:35.093Z,5.97
2019-04-16T13:36:05.197Z,5.53
2019-04-16T13:38:40.380Z,5.78
2019-04-16T13:41:10.894Z,5.28
2019-04-16T13:43:42.449Z,5.40
2019-04-16T13:46:12.389Z,5.70
2019-04-16T13:48:59.420Z,5.28
2019-04-16T13:51:35.164Z,5.53
2019-04-16T13:54:06.789Z,5.45
2019-04-16T13:56:44.408Z,5.53
2019-04-16T13:59:24.734Z,5.55
2019-04-16T14:01:59.191Z,5.35
2019-04-16T14:04:31.501Z,5.30
2019-04-16T14:07:01.431Z,6.58
2019-04-16T14:09:31.361Z,5.25
2019-04-16T14:12:01.224Z,6.12
2019-04-16T14:14:31.131Z,8.23
2019-04-16T14:17:09.048Z,5.10
2019-04-16T14:19:34.732Z,4.97
2019-04-16T14:22:04.548Z,5.83
2019-04-16T14:24:34.466Z,4.85
2019-04-16T14:27:04.540Z,5.47
2019-04-16T14:29:35.784Z,5.47
2019-04-16T14:32:06.153Z,7.50
2019-04-16T14:34:52.727Z,5.42
2019-04-16T14:37:22.666Z,4.95
2019-04-16T14:39:54.316Z,4.87
2019-04-16T14:42:24.180Z,4.62
2019-04-16T14:44:58.614Z,5.00
2019-04-16T14:47:29.885Z,4.85
2019-04-16T14:50:00.096Z,5.58
2019-04-16T14:52:29.964Z,5.10
2019-04-16T14:55:04.301Z,5.45
2019-04-16T14:57:35.927Z,5.05
2019-04-16T15:00:17.812Z,5.00
2019-04-16T15:02:52.264Z,4.92
2019-04-16T15:05:23.744Z,5.08
2019-04-16T15:08:11.656Z,4.65
2019-04-16T15:10:43.145Z,6.53
2019-04-16T15:13:17.599Z,4.92
2019-04-16T15:15:49.104Z,4.95
2019-04-16T15:18:21.758Z,4.65
2019-04-16T15:20:55.977Z,5.08
2019-04-16T15:23:43.715Z,5.40
2019-04-16T15:26:31.389Z,4.72
2019-04-16T15:29:11.787Z,4.97
2019-04-16T15:31:43.273Z,4.70
2019-04-16T15:34:26.801Z,4.67
2019-04-16T15:37:13.650Z,4.40
2019-04-16T15:39:45.231Z,4.80
2019-04-16T15:42:33.474Z,4.58
2019-04-16T15:45:08.458Z,5.50
2019-04-16T15:47:43.012Z,4.37
2019-04-16T15:50:14.524Z,4.70
2019-04-16T15:52:55.058Z,5.10
2019-04-16T15:55:44.653Z,4.85
2019-04-16T15:58:22.216Z,4.87
2019-04-16T16:01:09.901Z,4.30
2019-04-16T16:03:44.211Z,5.05
2019-04-16T16:06:16.959Z,4.92
2019-04-16T16:08:49.136Z,4.67
2019-04-16T16:11:26.429Z,4.40
2019-04-16T16:14:00.177Z,5.00
2019-04-16T16:18:58.860Z,5.12
2019-04-16T16:21:29.014Z,4.90
2019-04-16T16:23:58.999Z,6.17
2019-04-16T16:26:28.939Z,4.50
2019-04-16T16:28:58.965Z,4.80
2019-04-16T16:31:32.258Z,4.60
2019-04-16T16:34:00.381Z,4.72
2019-04-16T16:36:30.324Z,4.78
2019-04-16T16:39:00.167Z,4.70
2019-04-16T16:41:30.084Z,5.30
2019-04-16T16:44:00.035Z,4.83
2019-04-16T16:46:56.144Z,4.70
2019-04-16T16:49:15.300Z,5.50
2019-04-16T16:52:02.333Z,5.05
2019-04-16T16:54:32.334Z,5.00
2019-04-16T16:57:08.402Z,5.75
2019-04-16T16:59:39.869Z,10.60
2019-04-16T17:02:27.464Z,10.72
2019-04-16T17:04:59.084Z,10.08
2019-04-16T17:07:29.075Z,11.00
2019-04-16T17:09:59.275Z,6.33
2019-04-16T17:12:29.204Z,9.95
2019-04-16T17:14:59.280Z,6.75
2019-04-16T17:17:29.283Z,10.93
2019-04-16T17:19:59.267Z,10.72
2019-04-16T17:22:29.137Z,10.03
2019-04-16T17:24:58.987Z,13.15
2019-04-16T17:27:28.955Z,10.55
2019-04-16T17:29:58.904Z,20.68
2019-04-16T17:32:28.853Z,17.52
2019-04-16T17:34:58.817Z,20.82
2019-04-16T17:37:28.975Z,21.77
2019-04-16T17:40:00.748Z,20.10
2019-04-16T17:42:37.643Z,22.13
2019-04-16T17:45:25.033Z,44.63
2019-04-16T17:48:02.398Z,89.40
2019-04-16T17:50:42.995Z,109.12
2019-04-16T17:53:17.538Z,97.47
2019-04-16T17:56:05.644Z,101.50
2019-04-16T17:58:37.257Z,110.37
2019-04-16T18:01:24.015Z,117.72
2019-04-16T18:03:56.903Z,103.27
2019-04-16T18:09:17.750Z,116.85
2019-04-16T18:11:49.413Z,132.63
2019-04-16T18:14:37.415Z,142.18
2019-04-16T18:17:09.120Z,129.87
2019-04-16T18:19:40.791Z,128.78
2019-04-16T18:22:15.588Z,122.53
2019-04-16T18:24:45.732Z,120.95
2019-04-16T18:27:32.417Z,134.07
2019-04-16T18:30:16.142Z,113.70
2019-04-16T18:33:07.221Z,137.70
2019-04-16T18:35:37.810Z,116.08
2019-04-16T18:38:09.419Z,109.48
2019-04-16T18:41:02.462Z,108.32
2019-04-16T18:43:49.310Z,127.80
2019-04-16T18:46:23.610Z,113.95
2019-04-16T18:49:10.239Z,108.07
2019-04-16T18:51:40.097Z,98.82
2019-04-16T18:54:11.125Z,112.83
2019-04-16T18:56:41.393Z,104.00
2019-04-16T18:59:11.359Z,105.80
2019-04-16T19:01:45.788Z,102.78
2019-04-16T19:04:16.682Z,96.65
2019-04-16T19:06:46.640Z,103.78
2019-04-16T19:09:20.549Z,100.85
2019-04-16T19:11:48.432Z,95.22
2019-04-16T19:14:18.472Z,93.15
2019-04-16T19:16:48.569Z,100.70
2019-04-16T19:19:22.126Z,100.05
2019-04-16T19:21:57.131Z,89.42
2019-04-16T19:24:27.147Z,84.00
2019-04-16T19:26:57.264Z,81.75
2019-04-16T19:29:30.553Z,87.50
2019-04-16T19:32:02.977Z,83.12
2019-04-16T19:34:33.186Z,82.82
2019-04-16T19:37:03.351Z,82.62
2019-04-16T19:39:37.000Z,77.37
2019-04-16T19:42:11.130Z,75.12
2019-04-16T19:44:42.833Z,79.80
2019-04-16T19:47:12.872Z,66.47
2019-04-16T19:49:43.821Z,82.62
2019-04-16T19:52:17.296Z,77.47
2019-04-16T19:57:15.334Z,82.15
2019-04-16T19:59:46.648Z,82.37
2019-04-16T20:02:17.228Z,75.92
2019-04-16T20:04:50.589Z,82.70
2019-04-16T20:07:19.179Z,79.77
2019-04-16T20:09:53.639Z,79.00
2019-04-16T20:12:25.075Z,76.05
2019-04-16T20:14:55.411Z,79.72
2019-04-16T20:17:26.011Z,77.90
2019-04-16T20:19:58.589Z,67.62
2019-04-16T20:22:30.693Z,68.07
2019-04-16T20:25:01.203Z,78.97
2019-04-16T20:27:31.351Z,73.65
2019-04-16T20:30:01.744Z,72.32
2019-04-16T20:32:34.990Z,67.08
2019-04-16T20:35:06.168Z,73.97
2019-04-16T20:37:38.060Z,68.25
2019-04-16T20:42:37.259Z,82.65
2019-04-16T20:45:07.450Z,81.82
2019-04-16T20:47:39.966Z,70.32
2019-04-16T20:50:10.315Z,69.17
2019-04-16T20:52:40.430Z,74.07
2019-04-16T20:55:15.664Z,74.53
2019-04-16T20:57:42.540Z,81.12
2019-04-16T21:00:14.388Z,82.17
2019-04-16T21:05:22.072Z,73.92
2019-04-16T21:07:47.220Z,93.12
2019-04-16T21:10:17.162Z,79.67
2019-04-16T21:12:47.112Z,77.00
2019-04-16T21:15:16.968Z,77.30
2019-04-16T21:17:46.840Z,69.35
2019-04-16T21:20:19.078Z,73.37
2019-04-16T21:22:48.371Z,77.22
2019-04-16T21:25:18.408Z,79.20
2019-04-16T21:27:49.968Z,74.42
2019-04-16T21:30:20.139Z,76.20
2019-04-16T21:33:00.705Z,86.85
2019-04-16T21:35:38.052Z,70.12
2019-04-16T21:38:18.273Z,70.75
2019-04-16T21:40:49.171Z,68.17
2019-04-16T21:43:19.150Z,67.35
2019-04-16T21:45:49.086Z,67.05
2019-04-16T21:48:19.034Z,67.40
2019-04-16T21:50:48.895Z,61.20
2019-04-16T21:53:18.972Z,70.52
2019-04-16T21:55:48.838Z,62.75
2019-04-16T21:58:18.788Z,66.75
2019-04-16T22:01:08.310Z,77.67
2019-04-16T22:03:41.773Z,68.52
2019-04-16T22:08:39.136Z,62.58
2019-04-16T22:11:11.802Z,61.53
2019-04-16T22:13:40.600Z,63.33
2019-04-16T22:16:10.545Z,56.10
2019-04-16T22:18:41.596Z,58.63
2019-04-16T22:21:12.305Z,62.13
2019-04-16T22:23:42.268Z,55.90
2019-04-16T22:26:12.193Z,63.87
2019-04-16T22:28:44.372Z,55.92
2019-04-16T22:31:13.773Z,62.35
2019-04-16T22:33:43.720Z,72.00
2019-04-16T22:36:13.647Z,56.85
2019-04-16T22:38:45.316Z,57.17
2019-04-16T22:41:32.239Z,57.58
2019-04-16T22:44:09.920Z,53.00
2019-04-16T22:46:47.328Z,54.95
2019-04-16T22:49:18.650Z,57.45
2019-04-16T22:51:48.917Z,48.38
2019-04-16T22:54:20.740Z,57.05
2019-04-16T22:56:52.198Z,52.45
2019-04-16T22:59:22.049Z,50.10
2019-04-16T23:01:53.370Z,49.75
2019-04-16T23:04:26.159Z,52.53
2019-04-16T23:06:55.223Z,54.80
2019-04-16T23:09:26.774Z,52.33
2019-04-16T23:11:57.186Z,49.83
2019-04-16T23:14:27.230Z,54.63
2019-04-16T23:16:57.187Z,50.40
2019-04-16T23:19:27.112Z,53.50
2019-04-16T23:21:56.993Z,46.80
2019-04-16T23:24:26.925Z,44.65
2019-04-16T23:26:57.082Z,51.28
2019-04-16T23:29:27.039Z,50.73
2019-04-16T23:31:57.221Z,52.60
2019-04-16T23:34:27.563Z,47.88
2019-04-16T23:36:57.450Z,50.78
2019-04-16T23:39:27.304Z,51.65
2019-04-16T23:41:57.180Z,56.92
2019-04-16T23:44:34.644Z,54.18
2019-04-16T23:47:21.465Z,51.15
2019-04-16T23:49:52.968Z,53.08
2019-04-16T23:52:24.481Z,45.92
2019-04-16T23:54:58.671Z,59.10
2019-04-16T23:57:30.261Z,58.28
